Forside
METAR-TAF:

METAR-TAF

Lufthavne :

Vojens Lufthavn

Vojens, Danmark

Breddekreds: 55-14N, længdekreds: 009-16E, højde: 43 m

Aktuelle vejr

Denne rapport blev lavet for 19 minutter siden, kl. 14:50 UTC
Vind 11 kt fra nordøst
Temperatur 11°C
Fugtighed 47%
Tryk 1024 hPa
Sigt 10 km eller mere
ingen skyer under 1500m og ingen cumulonimbus

METAR: EKSP 171450Z 05011KT CAVOK 11/M00 Q1024

Tid: 17:09 (15:09 UTC)

Vejrudsigter

Denne rapport blev lavet for 59 minutter siden, kl. 14:10 UTC
Foreløbig gælder fra 17 på 15 UTC til 18 på 15 UTC
Vind 12 kt fra østnordøst
Sigt 10 km eller mere
Spredte skyer i en højde af 8000 ft
ændring
fra 17 på 18 UTC til 17 på 20 UTC
Vind 6 kt fra nordøst

TAF: EKSP 171410Z 1715/1815 06012KT 9999 SCT080 BECMG 1718/1720 05006KT

Vejrobservationer og prognoser fra mere end 4000 lufthavne (METAR og TAF).

De gule og røde prikker repræsenterer de meteorologiske stationer.

Flyt musen over at se navnet på stationen.

Så klik over at se vejr observationer og prognoser.

At skifte det kort: Klik på de grønne knapper med et sort kors for at zoome ind; på den grønne knap med en bindestreg for at zoome ud; eller på de grønne pile for tilstødende kort.


METAR-TAF: